createdAt,value
2023-04-16T00:04:16.090Z,71.40
2023-04-16T00:09:17.632Z,55.08
2023-04-16T00:14:19.087Z,60.25
2023-04-16T00:19:20.519Z,47.22
2023-04-16T00:24:21.962Z,46.72
2023-04-16T00:29:23.380Z,44.90
2023-04-16T00:34:24.835Z,45.30
2023-04-16T00:39:27.283Z,41.40
2023-04-16T00:44:28.717Z,43.63
2023-04-16T00:49:30.136Z,45.30
2023-04-16T00:54:31.572Z,52.90
2023-04-16T00:59:32.992Z,54.00
2023-04-16T01:04:34.588Z,56.47
2023-04-16T01:09:36.089Z,44.17
2023-04-16T01:14:37.540Z,45.83
2023-04-16T01:19:38.988Z,42.78
2023-04-16T01:24:40.487Z,44.90
2023-04-16T01:29:41.957Z,43.80
2023-04-16T01:34:43.418Z,47.42
2023-04-16T01:39:44.860Z,45.58
2023-04-16T01:44:46.298Z,45.50
2023-04-16T01:49:47.764Z,49.88
2023-04-16T01:54:49.181Z,54.75
2023-04-16T01:59:50.625Z,52.53
2023-04-16T02:04:52.058Z,47.92
2023-04-16T02:09:56.113Z,46.20
2023-04-16T02:14:58.440Z,46.15
2023-04-16T02:19:59.893Z,49.60
2023-04-16T02:25:01.335Z,47.72
2023-04-16T02:30:02.777Z,52.75
2023-04-16T02:35:04.213Z,42.72
2023-04-16T02:40:05.661Z,47.58
2023-04-16T02:45:07.104Z,42.20
2023-04-16T02:50:08.557Z,52.83
2023-04-16T02:55:09.979Z,54.05
2023-04-16T03:00:11.392Z,45.92
2023-04-16T03:05:12.972Z,56.45
2023-04-16T03:10:14.423Z,59.30
2023-04-16T03:15:15.886Z,52.53
2023-04-16T03:20:17.321Z,65.82
2023-04-16T03:25:18.765Z,56.95
2023-04-16T03:30:20.205Z,65.40
2023-04-16T03:35:21.644Z,52.20
2023-04-16T03:40:23.076Z,54.05
2023-04-16T03:45:24.499Z,64.68
2023-04-16T03:50:25.979Z,65.20
2023-04-16T03:55:27.427Z,66.40
2023-04-16T04:00:28.866Z,71.70
2023-04-16T04:05:30.318Z,66.32
2023-04-16T04:10:31.747Z,61.72
2023-04-16T04:15:33.187Z,68.57
2023-04-16T04:20:34.650Z,66.32
2023-04-16T04:25:36.100Z,71.75
2023-04-16T04:30:37.545Z,68.20
2023-04-16T04:35:38.996Z,64.50
2023-04-16T04:40:40.486Z,70.55
2023-04-16T04:45:41.978Z,72.53
2023-04-16T04:50:43.405Z,64.55
2023-04-16T04:55:44.831Z,62.22
2023-04-16T05:00:46.268Z,58.47
2023-04-16T05:05:47.726Z,58.50
2023-04-16T05:10:49.183Z,65.72
2023-04-16T05:15:50.660Z,60.60
2023-04-16T05:20:52.094Z,61.22
2023-04-16T05:25:53.526Z,71.65
2023-04-16T05:30:54.996Z,78.65
2023-04-16T05:35:56.443Z,56.97
2023-04-16T05:40:57.890Z,58.20
2023-04-16T05:45:59.410Z,49.35
2023-04-16T05:51:00.870Z,54.72
2023-04-16T05:56:02.326Z,44.03
2023-04-16T06:01:03.766Z,49.00
2023-04-16T06:06:05.275Z,50.05
2023-04-16T06:11:06.762Z,46.65
2023-04-16T06:16:08.297Z,42.72
2023-04-16T06:21:09.780Z,46.28
2023-04-16T06:26:11.200Z,47.15
2023-04-16T06:31:12.660Z,48.13
2023-04-16T06:36:14.145Z,53.30
2023-04-16T06:41:15.568Z,49.45
2023-04-16T06:46:17.025Z,46.78
2023-04-16T06:51:18.499Z,54.45
2023-04-16T06:56:19.953Z,43.70
2023-04-16T07:01:21.438Z,48.45
2023-04-16T07:06:22.921Z,46.90
2023-04-16T07:11:24.368Z,48.83
2023-04-16T07:16:25.871Z,48.38
2023-04-16T07:21:27.946Z,45.42
2023-04-16T07:26:29.392Z,45.70
2023-04-16T07:31:30.880Z,45.85
2023-04-16T07:36:32.327Z,44.42
2023-04-16T07:41:33.909Z,45.80
2023-04-16T07:46:43.537Z,37.70
2023-04-16T07:51:48.619Z,42.17
2023-04-16T07:56:50.077Z,38.20
2023-04-16T08:01:51.576Z,45.47
2023-04-16T08:06:53.103Z,41.75
2023-04-16T08:11:54.539Z,37.88
2023-04-16T08:16:55.971Z,36.80
2023-04-16T08:21:57.433Z,38.58
2023-04-16T08:27:08.113Z,43.42
2023-04-16T08:32:16.822Z,35.47
2023-04-16T08:37:18.254Z,37.78
2023-04-16T08:42:19.701Z,33.70
2023-04-16T08:47:21.153Z,30.52
2023-04-16T08:52:22.604Z,26.00
2023-04-16T08:57:24.171Z,26.77
2023-04-16T09:02:27.112Z,20.23
2023-04-16T09:07:28.657Z,20.35
2023-04-16T09:12:30.075Z,18.45
2023-04-16T09:17:31.562Z,13.85
2023-04-16T09:22:33.046Z,12.98
2023-04-16T09:27:34.514Z,12.57
2023-04-16T09:32:35.949Z,10.80
2023-04-16T09:37:37.374Z,10.55
2023-04-16T09:42:38.820Z,10.57
2023-04-16T09:47:40.341Z,12.10
2023-04-16T09:52:41.793Z,9.50
2023-04-16T09:57:43.251Z,10.27
2023-04-16T10:02:44.773Z,10.10
2023-04-16T10:07:46.289Z,9.32
2023-04-16T10:12:47.728Z,9.50
2023-04-16T10:17:49.193Z,8.98
2023-04-16T10:22:50.641Z,9.02
2023-04-16T10:27:52.090Z,5.78
2023-04-16T10:32:53.630Z,5.43
2023-04-16T10:37:55.106Z,5.95
2023-04-16T10:42:56.597Z,6.00
2023-04-16T10:47:58.094Z,5.22
2023-04-16T10:52:59.632Z,6.28
2023-04-16T10:58:01.091Z,5.35
2023-04-16T11:03:02.654Z,6.60
2023-04-16T11:08:04.146Z,8.32
2023-04-16T11:13:05.563Z,6.60
2023-04-16T11:18:07.139Z,6.18
2023-04-16T11:23:08.670Z,5.95
2023-04-16T11:28:10.085Z,6.68
2023-04-16T11:33:11.561Z,4.90
2023-04-16T11:38:13.109Z,5.05
2023-04-16T11:43:14.580Z,7.95
2023-04-16T11:48:16.091Z,7.47
2023-04-16T11:53:17.517Z,5.60
2023-04-16T11:58:18.969Z,5.65
2023-04-16T12:03:20.613Z,4.43
2023-04-16T12:08:22.149Z,5.30
2023-04-16T12:13:23.600Z,6.50
2023-04-16T12:18:25.056Z,5.07
2023-04-16T12:23:26.476Z,4.97
2023-04-16T12:28:27.930Z,4.82
2023-04-16T12:33:29.365Z,5.30
2023-04-16T12:38:30.831Z,6.07
2023-04-16T12:43:32.293Z,6.82
2023-04-16T12:48:33.739Z,5.18
2023-04-16T12:53:35.214Z,5.82
2023-04-16T12:58:36.661Z,6.13
2023-04-16T13:03:38.254Z,4.55
2023-04-16T13:08:39.782Z,3.83
2023-04-16T13:13:41.234Z,5.65
2023-04-16T13:18:42.686Z,4.95
2023-04-16T13:23:44.426Z,5.10
2023-04-16T13:28:46.044Z,7.00
2023-04-16T13:33:47.494Z,5.13
2023-04-16T13:38:48.932Z,4.05
2023-04-16T13:43:50.399Z,5.20
2023-04-16T13:48:51.830Z,6.05
2023-04-16T13:53:53.306Z,10.95
2023-04-16T13:58:54.773Z,4.95
2023-04-16T14:03:56.319Z,4.25
2023-04-16T14:08:57.800Z,3.63
2023-04-16T14:13:59.230Z,4.35
2023-04-16T14:19:00.682Z,3.97
2023-04-16T14:24:02.114Z,4.55
2023-04-16T14:29:03.543Z,5.38
2023-04-16T14:34:04.979Z,3.97
2023-04-16T14:39:06.606Z,3.50
2023-04-16T14:44:08.042Z,3.20
2023-04-16T14:49:11.990Z,2.47
2023-04-16T14:54:13.765Z,3.55
2023-04-16T14:59:15.202Z,3.38
2023-04-16T15:04:16.795Z,2.70
2023-04-16T15:09:18.311Z,2.78
2023-04-16T15:14:19.740Z,3.03
2023-04-16T15:19:21.203Z,3.33
2023-04-16T15:24:22.650Z,4.20
2023-04-16T15:29:24.105Z,3.00
2023-04-16T15:34:25.546Z,3.65
2023-04-16T15:39:26.998Z,5.05
2023-04-16T15:44:28.433Z,4.63
2023-04-16T15:49:29.856Z,3.63
2023-04-16T15:54:31.283Z,3.67
2023-04-16T15:59:32.747Z,2.95
2023-04-16T16:04:34.308Z,3.45
2023-04-16T16:09:35.832Z,5.28
2023-04-16T16:14:37.272Z,6.90
2023-04-16T16:19:38.699Z,5.43
2023-04-16T16:24:40.164Z,4.55
2023-04-16T16:29:41.607Z,4.32
2023-04-16T16:34:43.033Z,4.82
2023-04-16T16:39:44.464Z,13.80
2023-04-16T16:44:45.897Z,13.00
2023-04-16T16:49:47.350Z,13.70
2023-04-16T16:54:48.771Z,10.23
2023-04-16T16:59:50.200Z,5.63
2023-04-16T17:04:51.644Z,6.13
2023-04-16T17:09:53.104Z,6.18
2023-04-16T17:14:54.552Z,8.10
2023-04-16T17:19:55.985Z,5.97
2023-04-16T17:24:57.442Z,7.40
2023-04-16T17:29:58.933Z,5.88
2023-04-16T17:35:00.392Z,7.07
2023-04-16T17:40:01.865Z,7.50
2023-04-16T17:45:03.373Z,7.10
2023-04-16T17:50:04.855Z,7.85
2023-04-16T17:55:06.292Z,8.57
2023-04-16T18:00:07.763Z,7.50
2023-04-16T18:05:09.334Z,12.57
2023-04-16T18:10:10.889Z,11.00
2023-04-16T18:15:12.337Z,9.23
2023-04-16T18:20:13.801Z,11.93
2023-04-16T18:25:16.091Z,10.98
2023-04-16T18:30:22.135Z,10.48
2023-04-16T18:35:24.835Z,14.90
2023-04-16T18:40:26.398Z,10.57
2023-04-16T18:45:28.317Z,11.18
2023-04-16T18:50:29.926Z,11.85
2023-04-16T18:55:31.404Z,14.02
2023-04-16T19:00:32.892Z,16.92
2023-04-16T19:05:34.377Z,16.85
2023-04-16T19:10:35.851Z,18.08
2023-04-16T19:15:37.312Z,15.23
2023-04-16T19:20:38.751Z,17.08
2023-04-16T19:25:40.221Z,14.98
2023-04-16T19:30:42.417Z,16.67
2023-04-16T19:35:44.172Z,17.08
2023-04-16T19:40:45.598Z,19.45
2023-04-16T19:45:47.088Z,21.13
2023-04-16T19:50:48.595Z,27.45
2023-04-16T19:55:50.124Z,19.63
2023-04-16T20:00:51.608Z,20.67
2023-04-16T20:05:53.066Z,21.52
2023-04-16T20:10:54.583Z,19.92
2023-04-16T20:15:56.040Z,21.42
2023-04-16T20:20:57.466Z,21.00
2023-04-16T20:25:58.889Z,20.17
2023-04-16T20:31:00.407Z,24.52
2023-04-16T20:36:01.865Z,24.08
2023-04-16T20:41:03.290Z,23.58
2023-04-16T20:46:04.745Z,25.17
2023-04-16T20:51:06.211Z,24.83
2023-04-16T20:56:07.660Z,23.02
2023-04-16T21:01:09.161Z,27.00
2023-04-16T21:06:10.624Z,27.77
2023-04-16T21:11:12.069Z,23.13
2023-04-16T21:16:13.540Z,22.58
2023-04-16T21:21:15.008Z,29.67
2023-04-16T21:26:16.532Z,26.27
2023-04-16T21:31:18.015Z,24.52
2023-04-16T21:36:19.487Z,26.02
2023-04-16T21:41:20.907Z,25.00
2023-04-16T21:46:22.382Z,28.60
2023-04-16T21:51:23.844Z,26.17
2023-04-16T21:56:25.289Z,25.55
2023-04-16T22:01:26.812Z,27.60
2023-04-16T22:06:28.328Z,25.40
2023-04-16T22:11:29.778Z,28.42
2023-04-16T22:16:31.250Z,27.10
2023-04-16T22:21:32.726Z,27.10
2023-04-16T22:26:34.148Z,27.27
2023-04-16T22:31:35.617Z,31.80
2023-04-16T22:36:37.093Z,32.65
2023-04-16T22:41:38.528Z,33.28
2023-04-16T22:46:39.948Z,32.85
2023-04-16T22:51:41.378Z,34.38
2023-04-16T22:56:42.797Z,33.33
2023-04-16T23:01:44.306Z,36.53
2023-04-16T23:06:45.763Z,39.20
2023-04-16T23:11:47.207Z,38.38
2023-04-16T23:16:48.642Z,38.33
2023-04-16T23:21:50.101Z,38.08
2023-04-16T23:26:51.534Z,43.13
2023-04-16T23:31:53.051Z,42.92
2023-04-16T23:36:54.662Z,45.67
2023-04-16T23:41:56.118Z,53.80
2023-04-16T23:46:57.604Z,46.35
2023-04-16T23:51:59.069Z,55.92
2023-04-16T23:57:00.485Z,48.40
